This is the latest recevied weather packets stored in our database for station/object SR9WXGR. If no packets are shown the sender has not sent any weather packets the latest 10 day(s).
| Time | Temp. | Humidity | Pressure | Rain* | Wind** | Luminosity | Snow |
|---|---|---|---|---|---|---|---|
| 1777664103 | 13.89° C | 43% | 985 hPa | - | - | - | - |
| 1777660500 | 15° C | 38% | 985 hPa | - | - | - | - |
| 1777653301 | 17.78° C | 31% | 984 hPa | - | - | - | - |
| 1777649700 | 18.89° C | 28% | 984 hPa | - | - | - | - |
| 1777646101 | 18.89° C | 28% | 985 hPa | - | - | - | - |
| 1777642500 | 18.89° C | 28% | 985 hPa | - | - | - | - |
| 1777635300 | 16.67° C | 29% | 986 hPa | - | - | - | - |
| 1777631701 | 15.56° C | 31% | 986 hPa | - | - | - | - |
| 1777628100 | 13.89° C | 31% | 987 hPa | - | - | - | - |
| 1777624500 | 12.78° C | 29% | 987 hPa | - | - | - | - |
| 1777620901 | 11.67° C | 30% | 987 hPa | - | - | - | - |
| 1777617300 | 8.89° C | 39% | 987 hPa | - | - | - | - |
| 1777613700 | 6.67° C | 44% | 987 hPa | - | - | - | - |
| 1777610100 | 5° C | 47% | 987 hPa | - | - | - | - |
| 1777606501 | 5° C | 47% | 987 hPa | - | - | - | - |
| 1777602901 | 3.89° C | 46% | 987 hPa | - | - | - | - |
| 1777584901 | 10° C | 30% | 987 hPa | - | - | - | - |
| 1777574100 | 11.67° C | 23% | 987 hPa | - | - | - | - |
| 1777566901 | 16.67° C | 19% | 986 hPa | - | - | - | - |
| 1777563301 | 16.67° C | 20% | 987 hPa | - | - | - | - |
| 1777556101 | 13.89° C | 25% | 987 hPa | - | - | - | - |
| 1777552501 | 10.56° C | 27% | 988 hPa | - | - | - | - |
| 1777548901 | 10° C | 29% | 989 hPa | - | - | - | - |
| 1777541700 | 7.78° C | 30% | 989 hPa | - | - | - | - |
| 1777538100 | 6.67° C | 33% | 990 hPa | - | - | - | - |
* Rain since midnight (hover to see other rain measurements)
** Current wind speed in m/s (hover to see current wind gust speed)